Time;durP1;ratioP1;P1;durP2;ratioP2;P2;SDS_P1;SDS_P2;PMS_P1;PMS_P2;Temp;Humidity;BMP_temperature;BMP_pressure;BME280_temperature;BME280_humidity;BME280_pressure;Samples;Min_cycle;Max_cycle;Signal;HPM_P1;HPM_P2
2024/03/04 00:00:24;;;;;;;23.00;10.40;;;;;;;6.83;53.39;100418.02;108025;1258;72441;-67
2024/03/04 00:02:52;;;;;;;24.80;11.10;;;;;;;6.90;53.22;100408.48;108019;1254;60965;-66
2024/03/04 00:05:19;;;;;;;21.70;10.80;;;;;;;6.78;53.10;100409.21;108059;1254;60337;-66
2024/03/04 00:07:47;;;;;;;46.20;17.30;;;;;;;6.85;52.87;100404.20;108006;1254;76418;-64
2024/03/04 00:10:15;;;;;;;31.90;13.90;;;;;;;6.88;52.94;100403.64;107993;1254;69003;-65
2024/03/04 00:12:44;;;;;;;42.10;15.90;;;;;;;6.84;52.94;100411.73;108017;1254;72746;-64
2024/03/04 00:15:13;;;;;;;26.20;10.80;;;;;;;6.89;52.77;100410.25;107996;1254;60326;-67
2024/03/04 00:17:41;;;;;;;21.30;10.40;;;;;;;6.98;52.64;100411.85;108024;1254;60234;-67
2024/03/04 00:20:10;;;;;;;21.40;10.60;;;;;;;7.02;52.24;100406.35;108063;1254;72812;-67
2024/03/04 00:22:38;;;;;;;20.40;9.00;;;;;;;7.02;52.40;100409.66;108080;1254;68920;-66
2024/03/04 00:25:07;;;;;;;23.30;10.50;;;;;;;6.87;52.68;100408.71;108152;1254;72670;-67
2024/03/04 00:27:34;;;;;;;25.00;10.90;;;;;;;6.91;52.45;100409.34;108140;1254;60566;-66
2024/03/04 00:30:03;;;;;;;22.70;9.70;;;;;;;6.91;52.43;100406.19;108056;1254;60424;-67
2024/03/04 00:32:31;;;;;;;17.50;9.80;;;;;;;6.91;52.43;100407.23;108110;1254;73741;-66
2024/03/04 00:34:58;;;;;;;24.30;10.80;;;;;;;6.90;52.26;100406.55;108074;1254;68845;-66
2024/03/04 00:37:26;;;;;;;19.30;9.70;;;;;;;6.90;52.32;100404.28;108109;1259;72710;-66
2024/03/04 00:39:54;;;;;;;25.80;10.60;;;;;;;6.87;52.45;100406.77;108070;1254;60324;-65
2024/03/04 00:42:25;;;;;;;27.50;10.80;;;;;;;6.94;52.37;100407.19;108053;1254;60338;-65
2024/03/04 00:44:53;;;;;;;29.10;11.30;;;;;;;7.01;52.06;100407.77;108081;1253;72790;-67
2024/03/04 00:47:21;;;;;;;24.50;10.40;;;;;;;6.94;52.20;100402.32;108031;1254;72376;-66
2024/03/04 00:49:50;;;;;;;26.10;11.50;;;;;;;6.81;52.37;100405.32;108066;1254;71691;-67
2024/03/04 00:52:18;;;;;;;30.70;11.00;;;;;;;6.79;52.39;100403.62;108064;1254;59659;-66
2024/03/04 00:54:46;;;;;;;24.50;10.70;;;;;;;6.79;52.40;100400.64;108074;1254;60389;-68
2024/03/04 00:57:13;;;;;;;22.70;10.60;;;;;;;6.80;52.23;100399.23;107982;1258;73933;-67
2024/03/04 00:59:41;;;;;;;27.80;11.60;;;;;;;6.72;52.29;100400.08;108044;1254;69965;-67
2024/03/04 01:02:09;;;;;;;25.30;11.60;;;;;;;6.65;52.43;100401.59;107863;1253;72681;-67
2024/03/04 01:04:36;;;;;;;20.80;10.60;;;;;;;6.61;52.42;100399.73;108029;1254;60341;-68
2024/03/04 01:07:04;;;;;;;26.20;11.90;;;;;;;6.54;52.50;100397.93;108052;1254;60300;-66
2024/03/04 01:09:33;;;;;;;31.40;11.40;;;;;;;6.54;52.56;100394.79;108044;1253;73193;-67
2024/03/04 01:12:00;;;;;;;25.50;11.30;;;;;;;6.63;52.45;100396.38;108026;1254;69629;-67
2024/03/04 01:14:28;;;;;;;28.50;12.10;;;;;;;6.62;52.53;100394.48;108022;1258;71463;-68
2024/03/04 01:16:55;;;;;;;26.80;11.90;;;;;;;6.57;52.64;100394.20;108072;1254;60418;-67
2024/03/04 01:19:23;;;;;;;33.10;12.70;;;;;;;6.53;52.64;100395.49;108000;1259;60456;-66
2024/03/04 01:21:52;;;;;;;26.30;11.70;;;;;;;6.58;52.51;100394.55;107884;1254;72890;-67
2024/03/04 01:24:20;;;;;;;26.30;11.50;;;;;;;6.54;52.55;100394.62;107981;1254;69089;-67
2024/03/04 01:26:47;;;;;;;28.40;12.70;;;;;;;6.59;52.23;100396.45;107998;1257;72644;-67
2024/03/04 01:29:15;;;;;;;25.70;11.50;;;;;;;6.62;52.38;100397.09;108047;1257;59880;-68
2024/03/04 01:31:44;;;;;;;26.60;11.70;;;;;;;6.67;52.37;100393.16;108047;1254;60984;-67
2024/03/04 01:34:16;;;;;;;24.40;10.40;;;;;;;6.70;52.13;100394.69;108143;1253;73785;-65
2024/03/04 01:36:44;;;;;;;25.90;10.70;;;;;;;6.71;52.10;100393.80;108217;1256;68926;-67
2024/03/04 01:39:12;;;;;;;24.10;10.40;;;;;;;6.78;51.72;100390.88;108007;1254;72791;-67
2024/03/04 01:41:39;;;;;;;28.60;11.60;;;;;;;6.78;51.73;100389.30;108222;1254;61354;-67
2024/03/04 01:44:07;;;;;;;27.80;12.30;;;;;;;6.68;51.87;100392.80;108214;1253;60287;-68
2024/03/04 01:46:35;;;;;;;29.00;11.00;;;;;;;6.74;51.80;100393.58;108230;1254;73862;-66
2024/03/04 01:49:03;;;;;;;29.90;12.10;;;;;;;6.80;51.52;100395.56;107980;1254;69200;-68
2024/03/04 01:51:31;;;;;;;27.70;12.20;;;;;;;6.74;51.76;100397.60;108279;1254;71738;-67
2024/03/04 01:53:58;;;;;;;25.90;12.50;;;;;;;6.83;51.58;100400.56;108052;1254;60416;-67
2024/03/04 01:56:26;;;;;;;30.00;11.40;;;;;;;6.86;51.57;100404.55;108119;1254;60015;-67
2024/03/04 01:58:53;;;;;;;23.30;10.70;;;;;;;6.90;51.52;100405.51;108235;1254;73912;-66
2024/03/04 02:01:21;;;;;;;24.20;10.80;;;;;;;6.98;51.33;100406.60;108224;1253;68707;-66
2024/03/04 02:03:49;;;;;;;26.30;10.60;;;;;;;7.03;51.02;100410.18;108257;1253;72675;-68
2024/03/04 02:06:16;;;;;;;23.40;11.00;;;;;;;7.03;50.91;100407.02;108235;1254;60459;-67
2024/03/04 02:08:44;;;;;;;25.30;10.80;;;;;;;7.14;50.72;100408.40;108098;1253;60188;-67
2024/03/04 02:11:12;;;;;;;19.50;10.00;;;;;;;7.18;50.55;100406.58;108167;1253;73591;-68
2024/03/04 02:13:40;;;;;;;20.30;9.90;;;;;;;7.02;50.65;100408.63;108293;1254;70029;-67
2024/03/04 02:16:08;;;;;;;31.30;10.30;;;;;;;7.09;50.61;100407.27;108143;1254;72650;-67
2024/03/04 02:18:36;;;;;;;20.30;10.50;;;;;;;7.05;50.66;100413.80;108238;1254;61630;-67
2024/03/04 02:21:04;;;;;;;25.40;10.30;;;;;;;6.99;50.66;100410.27;108156;1257;60805;-65
2024/03/04 02:23:32;;;;;;;19.10;9.50;;;;;;;7.04;50.65;100414.52;108081;1254;73874;-66
2024/03/04 02:26:00;;;;;;;16.50;9.20;;;;;;;7.02;50.52;100414.73;108230;1254;69180;-67
2024/03/04 02:28:28;;;;;;;20.30;10.30;;;;;;;7.04;50.60;100413.65;108255;1256;72424;-65
2024/03/04 02:30:58;;;;;;;19.80;9.80;;;;;;;7.03;50.46;100415.77;108193;1254;59655;-66
2024/03/04 02:33:26;;;;;;;20.40;9.80;;;;;;;7.02;50.55;100421.36;108185;1254;60537;-66
2024/03/04 02:35:53;;;;;;;22.10;10.80;;;;;;;6.97;50.60;100415.34;107988;1253;73145;-67
2024/03/04 02:38:21;;;;;;;16.30;8.70;;;;;;;6.96;50.44;100422.16;108120;1254;69122;-67
2024/03/04 02:40:49;;;;;;;24.90;10.30;;;;;;;6.88;50.80;100425.96;108087;1254;72709;-65
2024/03/04 02:43:17;;;;;;;26.10;11.40;;;;;;;6.93;50.55;100427.80;108102;1254;60981;-67
2024/03/04 02:45:45;;;;;;;21.00;9.70;;;;;;;6.99;50.47;100428.22;108046;1254;60533;-67
2024/03/04 02:48:13;;;;;;;21.10;10.10;;;;;;;6.90;50.63;100431.34;108059;1254;73891;-66
2024/03/04 02:50:40;;;;;;;23.10;10.20;;;;;;;6.97;50.65;100429.30;108093;1254;69677;-67
2024/03/04 02:53:09;;;;;;;23.50;10.90;;;;;;;7.00;50.49;100432.92;108086;1254;71554;-67
2024/03/04 02:55:37;;;;;;;24.60;9.90;;;;;;;6.97;50.50;100432.09;108048;1254;60332;-67
2024/03/04 02:58:08;;;;;;;18.20;9.00;;;;;;;6.98;50.60;100428.94;108095;1254;60219;-67
2024/03/04 03:00:36;;;;;;;19.60;9.80;;;;;;;7.12;50.13;100426.07;108013;1259;73836;-66
2024/03/04 03:03:04;;;;;;;23.30;10.80;;;;;;;7.20;49.94;100424.71;108223;1256;69343;-68
2024/03/04 03:05:32;;;;;;;21.40;9.40;;;;;;;7.17;50.08;100425.29;108261;1254;72667;-66
2024/03/04 03:07:59;;;;;;;22.60;11.40;;;;;;;7.11;50.12;100428.02;108131;1258;60447;-68
2024/03/04 03:10:28;;;;;;;17.70;9.90;;;;;;;6.94;50.31;100424.31;108108;1254;59965;-66
2024/03/04 03:12:56;;;;;;;20.30;9.60;;;;;;;6.87;50.48;100421.96;108110;1254;74025;-67
2024/03/04 03:15:24;;;;;;;22.30;10.00;;;;;;;6.99;50.34;100420.89;108058;1254;69932;-67
2024/03/04 03:17:52;;;;;;;20.70;8.90;;;;;;;6.90;50.38;100424.02;108057;1254;71717;-67
2024/03/04 03:20:20;;;;;;;24.40;11.20;;;;;;;7.09;50.15;100427.54;108000;1254;60437;-66
2024/03/04 03:22:48;;;;;;;20.60;9.80;;;;;;;7.18;49.89;100426.48;108078;1253;60437;-68
2024/03/04 03:25:16;;;;;;;21.90;10.10;;;;;;;7.28;49.88;100428.02;108154;1253;72606;-67
2024/03/04 03:27:44;;;;;;;24.70;11.50;;;;;;;7.11;49.99;100430.29;108100;1254;69961;-67
2024/03/04 03:30:12;;;;;;;22.20;11.60;;;;;;;7.09;49.91;100434.85;108127;1254;72749;-67
2024/03/04 03:32:40;;;;;;;22.10;10.60;;;;;;;7.30;49.59;100430.80;108152;1254;60309;-65
2024/03/04 03:35:08;;;;;;;24.20;12.00;;;;;;;7.27;49.43;100429.29;108118;1254;60356;-67
2024/03/04 03:37:35;;;;;;;29.00;12.70;;;;;;;7.32;49.41;100429.39;108246;1253;72601;-67
2024/03/04 03:40:05;;;;;;;27.70;12.10;;;;;;;7.21;49.84;100430.10;108127;1254;68852;-68
2024/03/04 03:42:32;;;;;;;27.90;12.80;;;;;;;7.25;49.70;100431.07;108114;1255;72602;-66
2024/03/04 03:45:01;;;;;;;26.60;11.20;;;;;;;7.27;49.74;100431.03;108155;1254;61460;-66
2024/03/04 03:47:29;;;;;;;25.50;12.40;;;;;;;7.31;49.83;100430.44;108105;1253;60325;-68
2024/03/04 03:49:58;;;;;;;23.60;11.10;;;;;;;7.34;49.50;100432.83;108205;1253;72617;-67
2024/03/04 03:52:25;;;;;;;29.30;13.10;;;;;;;7.12;49.84;100436.02;107977;1254;71690;-67
2024/03/04 03:54:53;;;;;;;26.20;12.30;;;;;;;7.32;49.47;100436.36;108173;1254;71380;-68
2024/03/04 03:57:21;;;;;;;24.30;11.30;;;;;;;7.27;49.41;100440.83;108194;1253;60460;-67
2024/03/04 03:59:48;;;;;;;22.50;11.50;;;;;;;7.40;49.21;100442.52;108068;1254;60269;-67
2024/03/04 04:02:16;;;;;;;24.50;12.30;;;;;;;7.40;49.25;100437.44;108168;1252;72608;-67
2024/03/04 04:04:44;;;;;;;25.20;11.70;;;;;;;7.23;49.59;100436.35;108147;1253;69180;-68
2024/03/04 04:07:11;;;;;;;24.40;12.50;;;;;;;7.24;49.74;100436.86;108148;1253;72903;-68
2024/03/04 04:09:39;;;;;;;21.60;12.30;;;;;;;7.29;49.47;100443.06;108240;1254;60286;-67
2024/03/04 04:12:07;;;;;;;27.30;13.00;;;;;;;7.29;49.47;100440.42;108203;1253;60035;-67
2024/03/04 04:14:34;;;;;;;25.80;13.80;;;;;;;7.34;49.56;100443.31;108118;1255;74342;-66
2024/03/04 04:17:02;;;;;;;28.50;12.40;;;;;;;7.40;49.40;100441.61;108115;1254;68887;-67
2024/03/04 04:19:30;;;;;;;29.50;13.60;;;;;;;7.35;49.35;100446.42;108112;1254;71244;-68
2024/03/04 04:21:57;;;;;;;26.60;12.90;;;;;;;7.25;49.49;100452.03;108160;1255;60363;-67
2024/03/04 04:24:25;;;;;;;24.60;13.30;;;;;;;7.36;49.36;100448.70;108151;1254;60212;-66
2024/03/04 04:26:52;;;;;;;24.70;12.80;;;;;;;7.32;49.57;100452.95;108114;1253;73858;-66
2024/03/04 04:29:19;;;;;;;23.00;12.20;;;;;;;7.38;49.29;100454.59;108202;1254;70093;-67
2024/03/04 04:31:47;;;;;;;28.30;13.80;;;;;;;7.39;49.21;100454.74;108152;1254;71413;-66
2024/03/04 04:34:15;;;;;;;25.00;12.10;;;;;;;7.43;49.14;100453.98;108152;1254;60450;-67
2024/03/04 04:36:51;;;;;;;28.70;14.20;;;;;;;7.56;48.88;100455.48;108046;1258;60358;-68
2024/03/04 04:39:19;;;;;;;22.50;12.20;;;;;;;7.49;49.26;100455.09;108054;1254;73121;-67
2024/03/04 04:41:47;;;;;;;27.90;14.10;;;;;;;7.55;49.01;100457.05;108062;1254;69335;-67
2024/03/04 04:44:14;;;;;;;28.30;14.20;;;;;;;7.54;48.99;100456.39;108046;1254;72714;-68
2024/03/04 04:46:42;;;;;;;26.40;14.20;;;;;;;7.40;49.18;100459.27;108080;1255;59567;-68
2024/03/04 04:49:10;;;;;;;29.10;14.30;;;;;;;7.28;49.57;100461.58;108090;1254;61061;-67
2024/03/04 04:51:37;;;;;;;32.20;14.50;;;;;;;7.19;49.71;100460.68;108073;1258;72446;-67
2024/03/04 04:54:05;;;;;;;30.30;15.20;;;;;;;7.21;49.72;100457.52;108065;1254;70144;-68
2024/03/04 04:56:32;;;;;;;31.10;14.50;;;;;;;7.30;49.58;100459.61;108065;1254;72428;-67
2024/03/04 04:59:01;;;;;;;33.90;15.80;;;;;;;7.45;49.45;100464.94;108023;1254;60443;-68
2024/03/04 05:01:28;;;;;;;72.90;26.10;;;;;;;7.49;49.26;100463.61;108012;1254;60406;-67
2024/03/04 05:03:56;;;;;;;49.70;20.80;;;;;;;7.52;49.07;100457.64;107985;1254;73810;-67
2024/03/04 05:06:26;;;;;;;39.10;18.80;;;;;;;7.57;48.92;100456.85;107999;1254;69191;-67
2024/03/04 05:08:54;;;;;;;30.40;15.60;;;;;;;7.54;48.90;100452.88;108102;1256;72616;-67
2024/03/04 05:11:22;;;;;;;31.40;14.50;;;;;;;7.60;48.85;100458.02;107997;1259;60287;-67
2024/03/04 05:13:50;;;;;;;33.90;15.20;;;;;;;7.61;48.88;100457.64;108041;1254;60928;-67
2024/03/04 05:16:18;;;;;;;27.00;14.50;;;;;;;7.58;49.13;100459.78;108055;1254;73832;-67
2024/03/04 05:18:45;;;;;;;30.40;15.90;;;;;;;7.59;49.16;100461.70;108067;1258;69983;-66
2024/03/04 05:21:13;;;;;;;27.00;14.70;;;;;;;7.64;49.16;100463.35;108004;1257;71330;-67
2024/03/04 05:23:40;;;;;;;28.10;15.00;;;;;;;7.61;49.21;100465.66;107908;1254;60321;-67
2024/03/04 05:26:08;;;;;;;28.90;14.10;;;;;;;7.68;49.03;100467.27;108009;1254;60335;-67
2024/03/04 05:28:36;;;;;;;29.40;14.80;;;;;;;7.78;48.79;100464.46;107996;1254;72640;-70
2024/03/04 05:31:04;;;;;;;31.60;14.40;;;;;;;7.95;48.50;100466.58;108093;1254;69651;-67
2024/03/04 05:33:31;;;;;;;29.90;15.10;;;;;;;7.93;48.57;100462.77;108044;1254;71661;-67
2024/03/04 05:36:04;;;;;;;33.30;15.10;;;;;;;8.26;48.40;100466.79;108054;1258;60816;-67
2024/03/04 05:38:32;;;;;;;30.00;14.70;;;;;;;8.61;47.57;100465.33;108175;1254;60334;-67
2024/03/04 05:40:59;;;;;;;26.40;13.80;;;;;;;8.73;46.97;100465.73;108088;1255;73850;-67
2024/03/04 05:43:27;;;;;;;21.50;13.30;;;;;;;9.12;46.82;100459.69;108153;1254;69376;-67
2024/03/04 05:45:55;;;;;;;30.60;13.90;;;;;;;9.49;45.45;100459.75;108122;1254;71364;-67
2024/03/04 05:48:22;;;;;;;25.30;13.60;;;;;;;9.90;45.01;100459.48;108066;1254;60817;-67
2024/03/04 05:50:51;;;;;;;30.90;14.10;;;;;;;10.19;44.42;100460.02;108046;1254;60555;-67
2024/03/04 05:53:20;;;;;;;27.90;13.00;;;;;;;10.27;43.21;100469.28;108086;1258;73785;-67
2024/03/04 05:55:49;;;;;;;24.00;13.50;;;;;;;10.31;43.20;100462.31;108102;1257;72390;-67
2024/03/04 05:58:17;;;;;;;22.10;12.20;;;;;;;10.54;43.31;100468.13;108061;1254;70987;-67
2024/03/04 06:00:45;;;;;;;22.40;12.40;;;;;;;10.69;42.80;100472.92;108052;1254;60428;-67
2024/03/04 06:03:12;;;;;;;23.50;12.90;;;;;;;10.82;42.81;100481.09;108032;1259;60309;-67
2024/03/04 06:05:40;;;;;;;26.90;13.40;;;;;;;11.20;42.01;100478.44;108100;1254;76266;-68
2024/03/04 06:08:07;;;;;;;31.10;13.80;;;;;;;11.38;41.62;100478.52;108100;1254;71447;-68
2024/03/04 06:10:36;;;;;;;29.20;13.20;;;;;;;11.63;41.47;100476.98;108079;1254;71963;-68
2024/03/04 06:13:04;;;;;;;27.40;13.50;;;;;;;11.81;40.92;100482.11;108028;1257;60397;-68
2024/03/04 06:15:31;;;;;;;26.00;13.10;;;;;;;11.93;40.08;100484.16;108043;1253;60402;-68
2024/03/04 06:17:59;;;;;;;28.00;12.40;;;;;;;11.68;39.58;100484.16;108082;1260;73934;-68
2024/03/04 06:20:26;;;;;;;28.00;13.00;;;;;;;11.48;40.35;100486.27;108079;1259;70485;-68
2024/03/04 06:22:54;;;;;;;30.30;12.80;;;;;;;11.61;40.47;100485.81;108033;1259;72661;-68
2024/03/04 06:25:21;;;;;;;31.30;14.40;;;;;;;11.77;39.70;100488.73;108058;1254;60278;-68
2024/03/04 06:27:49;;;;;;;23.80;13.50;;;;;;;11.66;40.20;100485.65;108056;1254;60929;-68
2024/03/04 06:30:18;;;;;;;24.00;12.90;;;;;;;12.03;39.86;100489.40;108048;1254;73748;-67
2024/03/04 06:32:46;;;;;;;24.30;13.80;;;;;;;12.49;39.97;100484.16;108052;1260;69951;-68
2024/03/04 06:35:13;;;;;;;31.10;14.30;;;;;;;12.82;39.06;100478.76;108041;1254;72727;-68
2024/03/04 06:37:41;;;;;;;24.40;12.70;;;;;;;12.99;37.96;100475.77;108096;1260;59571;-68
2024/03/04 06:40:09;;;;;;;31.80;13.60;;;;;;;13.25;37.70;100478.04;108210;1256;60813;-67
2024/03/04 06:42:37;;;;;;;23.30;13.00;;;;;;;13.34;37.43;100485.11;108245;1254;73786;-68
2024/03/04 06:45:05;;;;;;;25.90;13.10;;;;;;;13.13;36.76;100480.65;108222;1259;70269;-68
2024/03/04 06:47:33;;;;;;;26.20;13.90;;;;;;;13.07;36.97;100484.79;108080;1258;72682;-67
2024/03/04 06:50:01;;;;;;;20.30;12.50;;;;;;;12.91;37.18;100485.99;108203;1254;60446;-68
2024/03/04 06:52:28;;;;;;;27.70;13.00;;;;;;;12.81;37.40;100486.55;108057;1258;60290;-67
2024/03/04 06:54:58;;;;;;;24.20;13.10;;;;;;;12.57;37.54;100482.41;107964;1259;73759;-68
2024/03/04 06:57:26;;;;;;;23.20;13.60;;;;;;;12.15;38.22;100485.78;108198;1255;69307;-68
2024/03/04 06:59:55;;;;;;;22.40;13.90;;;;;;;12.01;38.57;100489.48;108215;1254;71059;-67
2024/03/04 07:02:22;;;;;;;31.50;14.60;;;;;;;12.24;38.55;100492.31;108151;1254;60380;-67
2024/03/04 07:04:50;;;;;;;21.90;12.70;;;;;;;12.72;38.57;100488.00;108018;1259;60434;-67
2024/03/04 07:07:18;;;;;;;28.30;13.90;;;;;;;12.93;37.88;100486.61;108145;1255;73847;-68
2024/03/04 07:09:46;;;;;;;23.50;14.40;;;;;;;12.98;37.49;100477.73;108131;1256;70122;-68
2024/03/04 07:12:13;;;;;;;25.80;13.10;;;;;;;13.05;37.40;100480.63;108183;1253;71454;-69
2024/03/04 07:14:41;;;;;;;27.10;13.90;;;;;;;13.03;37.25;100482.86;108183;1253;60263;-68
2024/03/04 07:17:08;;;;;;;24.60;14.20;;;;;;;12.81;37.36;100489.04;108058;1254;60706;-68
2024/03/04 07:19:36;;;;;;;31.00;14.20;;;;;;;12.85;37.65;100482.54;108136;1253;73819;-70
2024/03/04 07:22:05;;;;;;;26.10;14.20;;;;;;;13.12;37.43;100481.75;108037;1259;71874;-68
2024/03/04 07:24:32;;;;;;;25.10;14.20;;;;;;;13.45;36.97;100477.23;108132;1256;74765;-69
2024/03/04 07:27:00;;;;;;;26.50;13.30;;;;;;;13.87;36.59;100474.45;108089;1254;60834;-68
2024/03/04 07:29:27;;;;;;;23.90;13.20;;;;;;;14.10;35.90;100472.02;108095;1254;60733;-68
2024/03/04 07:32:07;;;;;;;22.90;13.40;;;;;;;14.43;35.50;100480.00;108114;1254;72675;-68
2024/03/04 07:34:34;;;;;;;27.30;14.50;;;;;;;14.60;35.25;100477.99;108046;1254;70296;-67
2024/03/04 07:37:03;;;;;;;21.70;13.80;;;;;;;14.84;34.95;100475.05;107985;1257;72720;-68
2024/03/04 07:39:31;;;;;;;27.30;15.00;;;;;;;14.96;34.35;100473.77;107853;1257;62301;-69
2024/03/04 07:41:58;;;;;;;21.50;13.40;;;;;;;15.17;34.48;100471.67;108044;1254;60399;-68
2024/03/04 07:44:26;;;;;;;27.60;14.80;;;;;;;15.66;34.11;100471.07;108082;1254;74043;-68
2024/03/04 07:46:53;;;;;;;34.50;14.60;;;;;;;15.90;33.04;100471.27;108036;1254;69615;-67
2024/03/04 07:49:21;;;;;;;24.00;13.70;;;;;;;15.46;33.38;100470.88;108041;1253;71575;-68
2024/03/04 07:51:49;;;;;;;29.70;13.60;;;;;;;15.32;33.53;100469.13;108005;1257;61312;-68
2024/03/04 07:54:16;;;;;;;28.40;14.40;;;;;;;15.29;33.87;100469.63;107983;1255;60325;-69
2024/03/04 07:56:44;;;;;;;26.40;14.10;;;;;;;15.22;33.95;100464.49;107963;1254;73107;-68
2024/03/04 07:59:11;;;;;;;26.80;14.40;;;;;;;15.55;33.69;100467.59;107977;1254;69971;-69
2024/03/04 08:01:46;;;;;;;23.20;13.90;;;;;;;15.70;33.53;100462.20;108021;1254;70488;-68
2024/03/04 08:04:13;;;;;;;24.80;14.50;;;;;;;16.24;33.49;100456.98;108011;1255;60329;-66
2024/03/04 08:09:39;;;;;;;28.10;14.30;;;;;;;16.14;33.35;100452.55;104884;1290;599556;-70
2024/03/04 08:12:08;;;;;;;31.10;15.30;;;;;;;17.26;31.64;100447.45;107460;1260;62282;-68
2024/03/04 08:14:36;;;;;;;25.00;14.80;;;;;;;17.39;31.11;100444.58;107487;1260;61638;-70
2024/03/04 08:17:04;;;;;;;22.10;13.60;;;;;;;17.55;30.99;100442.30;107413;1261;72360;-71
2024/03/04 08:19:32;;;;;;;30.70;15.70;;;;;;;17.62;31.03;100444.07;107452;1260;72627;-68
2024/03/04 08:21:59;;;;;;;28.00;14.10;;;;;;;17.62;30.81;100436.06;107425;1262;71425;-69
2024/03/04 08:24:27;;;;;;;24.40;15.00;;;;;;;17.70;30.94;100434.66;107457;1261;200684;-67
2024/03/04 08:26:55;;;;;;;26.40;14.50;;;;;;;17.99;30.64;100440.33;107689;1260;59794;-67
2024/03/04 08:29:22;;;;;;;25.20;14.10;;;;;;;17.87;30.37;100440.23;107548;1259;74458;-68
2024/03/04 08:31:50;;;;;;;26.40;14.60;;;;;;;17.68;30.55;100440.63;107557;1260;70468;-68
2024/03/04 08:34:19;;;;;;;26.60;13.60;;;;;;;17.37;30.85;100436.13;107597;1260;74844;-68
2024/03/04 08:36:47;;;;;;;31.30;15.80;;;;;;;17.46;31.13;100439.32;107547;1259;59940;-69
2024/03/04 08:39:16;;;;;;;25.90;14.60;;;;;;;17.59;31.02;100436.95;107551;1264;60610;-68
2024/03/04 08:41:48;;;;;;;21.90;13.10;;;;;;;17.68;31.04;100436.22;107548;1260;71614;-68
2024/03/04 08:44:16;;;;;;;29.10;14.80;;;;;;;17.64;30.91;100437.51;107559;1260;70152;-68
2024/03/04 08:46:44;;;;;;;24.20;14.30;;;;;;;17.67;30.84;100435.92;107470;1261;74072;-67
2024/03/04 08:49:13;;;;;;;27.10;13.10;;;;;;;17.55;30.86;100432.93;107578;1260;62200;-67
2024/03/04 08:51:41;;;;;;;22.90;14.00;;;;;;;17.42;31.39;100436.92;107634;1263;59072;-69
2024/03/04 08:54:09;;;;;;;24.00;14.20;;;;;;;17.16;31.88;100435.59;108151;1253;74112;-68
2024/03/04 08:56:38;;;;;;;25.60;14.10;;;;;;;17.31;31.83;100438.14;108089;1253;69621;-69
2024/03/04 08:59:09;;;;;;;24.50;15.10;;;;;;;17.40;31.31;100440.92;108227;1254;74847;-67
2024/03/04 09:01:36;;;;;;;28.00;13.20;;;;;;;17.60;31.23;100441.30;108261;1253;59876;-67
2024/03/04 09:04:04;;;;;;;25.40;14.80;;;;;;;17.47;31.20;100440.34;108289;1253;60726;-69
2024/03/04 09:06:32;;;;;;;24.30;13.80;;;;;;;17.58;31.22;100441.11;108128;1254;74250;-69
2024/03/04 09:08:59;;;;;;;26.20;14.20;;;;;;;17.58;30.96;100438.42;108111;1253;72874;-68
2024/03/04 09:11:27;;;;;;;26.40;14.90;;;;;;;17.85;30.99;100433.95;108263;1253;74767;-69
2024/03/04 09:13:55;;;;;;;27.60;14.10;;;;;;;18.37;30.76;100435.42;108243;1254;59900;-69
2024/03/04 09:16:23;;;;;;;26.10;14.20;;;;;;;18.93;30.20;100432.50;108320;1253;60061;-68
2024/03/04 09:18:51;;;;;;;24.50;14.80;;;;;;;19.59;29.71;100428.52;108301;1254;73250;-69
2024/03/04 09:21:19;;;;;;;24.70;14.30;;;;;;;20.25;28.31;100430.09;108148;1253;70924;-69
2024/03/04 09:23:48;;;;;;;25.50;14.80;;;;;;;20.17;28.34;100430.49;108327;1253;73011;-68
2024/03/04 09:26:17;;;;;;;28.80;14.50;;;;;;;20.07;28.48;100431.21;108260;1253;61161;-68
2024/03/04 09:28:49;;;;;;;26.10;13.60;;;;;;;19.96;28.66;100429.16;108229;1253;61029;-68
2024/03/04 09:31:17;;;;;;;21.50;12.10;;;;;;;19.85;28.66;100428.88;108174;1252;72681;-69
2024/03/04 09:33:45;;;;;;;56.40;15.60;;;;;;;19.87;28.82;100426.39;108143;1253;72022;-68
2024/03/04 09:36:13;;;;;;;32.20;13.90;;;;;;;19.80;28.66;100432.91;108123;1253;72794;-68
2024/03/04 09:38:44;;;;;;;21.30;12.80;;;;;;;19.66;29.09;100428.80;108159;1253;62238;-68
2024/03/04 09:41:11;;;;;;;22.80;13.10;;;;;;;19.86;29.22;100428.81;108180;1253;59596;-68
2024/03/04 09:43:39;;;;;;;20.70;13.40;;;;;;;20.18;28.88;100421.55;108054;1253;73470;-68
2024/03/04 09:46:07;;;;;;;25.40;13.70;;;;;;;20.45;28.47;100418.81;108062;1253;69907;-68
2024/03/04 09:48:37;;;;;;;24.10;13.20;;;;;;;20.51;28.36;100416.46;108082;1253;72643;-70
2024/03/04 09:51:05;;;;;;;24.20;13.90;;;;;;;20.66;28.24;100418.16;108176;1254;60339;-68
2024/03/04 09:53:35;;;;;;;24.80;13.80;;;;;;;20.28;28.45;100423.81;108074;1253;60133;-68
2024/03/04 09:56:04;;;;;;;26.90;13.50;;;;;;;19.81;28.81;100418.66;108237;1253;73253;-69
2024/03/04 09:58:34;;;;;;;22.70;11.90;;;;;;;19.86;28.64;100414.69;108093;1252;72526;-67
2024/03/04 10:01:02;;;;;;;21.60;12.90;;;;;;;19.59;28.83;100413.74;108042;1254;74854;-69
2024/03/04 10:03:30;;;;;;;22.20;13.60;;;;;;;19.23;29.31;100415.52;108231;1256;59602;-69
2024/03/04 10:05:58;;;;;;;21.60;13.10;;;;;;;18.68;29.81;100414.04;108085;1253;60523;-68
2024/03/04 10:08:26;;;;;;;24.40;13.70;;;;;;;18.64;30.12;100408.45;108142;1253;73183;-68
2024/03/04 10:10:53;;;;;;;23.90;13.30;;;;;;;18.55;30.11;100409.56;108064;1254;70662;-69
2024/03/04 10:13:21;;;;;;;20.60;14.00;;;;;;;18.81;30.00;100401.47;108043;1254;71348;-68
2024/03/04 10:15:49;;;;;;;25.30;12.90;;;;;;;19.15;29.57;100398.81;108071;1253;60342;-69
2024/03/04 10:18:17;;;;;;;19.50;12.90;;;;;;;19.00;29.59;100399.63;108117;1253;60649;-68
2024/03/04 10:20:44;;;;;;;21.60;12.50;;;;;;;19.09;29.54;100395.30;108103;1253;72835;-69
2024/03/04 10:23:12;;;;;;;25.00;14.00;;;;;;;19.25;29.37;100397.26;108044;1253;72261;-68
2024/03/04 10:25:40;;;;;;;23.10;13.40;;;;;;;19.16;29.30;100394.88;108186;1252;74863;-69
2024/03/04 10:28:08;;;;;;;23.80;13.10;;;;;;;19.00;29.37;100398.08;108101;1252;61248;-68
2024/03/04 10:30:36;;;;;;;21.70;13.10;;;;;;;19.06;29.32;100394.29;108017;1252;60129;-68
2024/03/04 10:33:04;;;;;;;23.90;11.70;;;;;;;18.75;29.62;100397.77;108206;1253;74410;-68
2024/03/04 10:35:32;;;;;;;22.70;12.80;;;;;;;18.48;29.85;100398.80;107983;1253;70467;-68
2024/03/04 10:38:02;;;;;;;22.20;12.40;;;;;;;18.34;29.89;100396.77;107990;1253;75048;-68
2024/03/04 10:40:34;;;;;;;19.80;11.80;;;;;;;18.44;30.05;100398.19;108079;1257;60745;-68
2024/03/04 10:43:03;;;;;;;19.80;13.10;;;;;;;18.20;30.32;100400.48;108068;1253;62204;-68
2024/03/04 10:45:35;;;;;;;23.50;12.70;;;;;;;18.19;30.72;100394.83;108026;1258;72095;-68
2024/03/04 10:48:07;;;;;;;20.60;11.80;;;;;;;18.42;30.15;100395.48;107926;1253;71341;-69
2024/03/04 10:50:35;;;;;;;21.90;11.80;;;;;;;18.16;30.54;100390.41;107941;1253;75019;-69
2024/03/04 10:53:03;;;;;;;21.10;13.00;;;;;;;17.98;30.74;100395.66;108040;1253;61199;-69
2024/03/04 10:55:31;;;;;;;22.80;12.30;;;;;;;17.99;30.65;100388.30;108042;1253;62116;-69
2024/03/04 10:58:01;;;;;;;23.50;13.20;;;;;;;17.70;30.93;100387.59;108016;1253;73175;-68
2024/03/04 11:00:32;;;;;;;22.20;12.40;;;;;;;17.84;30.88;100386.77;108046;1253;70257;-68
2024/03/04 11:03:00;;;;;;;19.60;12.90;;;;;;;17.77;30.86;100381.86;108046;1253;72757;-68
2024/03/04 11:05:32;;;;;;;24.10;13.00;;;;;;;17.50;31.37;100381.58;108076;1253;59833;-68
2024/03/04 11:08:04;;;;;;;25.20;13.30;;;;;;;17.19;31.97;100377.61;108098;1254;59532;-69
2024/03/04 11:10:45;;;;;;;29.80;13.90;;;;;;;17.23;31.85;100374.91;108001;1253;73167;-69
2024/03/04 11:13:18;;;;;;;24.20;14.50;;;;;;;17.31;31.78;100372.27;108037;1258;72611;-69